Time;durP1;ratioP1;P1;durP2;ratioP2;P2;SDS_P1;SDS_P2;PMS_P1;PMS_P2;Temp;Humidity;BMP_temperature;BMP_pressure;BME280_temperature;BME280_humidity;BME280_pressure;Samples;Min_cycle;Max_cycle;Signal;HPM_P1;HPM_P2
2022/01/18 00:01:09;;;;;;;7.57;6.87;;;;;;;1.69;90.63;98415.97;5045979;28;20232;-67
2022/01/18 00:03:35;;;;;;;8.20;7.27;;;;;;;1.69;90.49;98419.41;5066154;28;20238;-68
2022/01/18 00:06:02;;;;;;;8.00;7.17;;;;;;;1.69;90.34;98418.56;5076802;28;20225;-68
2022/01/18 00:08:28;;;;;;;7.33;6.63;;;;;;;1.67;90.46;98422.94;5072563;28;20197;-68
2022/01/18 00:10:54;;;;;;;8.87;6.93;;;;;;;1.65;90.48;98416.94;5059893;28;20179;-69
2022/01/18 00:13:38;;;;;;;8.60;7.88;;;;;;;1.69;90.29;98413.34;5051662;28;20427;-73
2022/01/18 00:16:27;;;;;;;8.07;7.27;;;;;;;1.70;90.59;98412.47;5046783;28;20202;-72
2022/01/18 00:18:54;;;;;;;8.43;7.67;;;;;;;1.67;90.89;98402.94;5036555;28;20337;-73
2022/01/18 00:21:28;;;;;;;8.17;7.37;;;;;;;1.66;91.22;98401.25;5036040;28;20611;-70
2022/01/18 00:23:57;;;;;;;8.60;7.23;;;;;;;1.67;90.81;98402.94;5035564;28;20241;-74
2022/01/18 00:26:27;;;;;;;9.07;8.17;;;;;;;1.66;90.91;98393.44;5029403;28;20268;-73
2022/01/18 00:29:01;;;;;;;9.10;8.20;;;;;;;1.61;90.91;98397.91;5044902;28;20212;-71
2022/01/18 00:31:48;;;;;;;8.33;7.60;;;;;;;1.58;91.03;98392.81;5051514;28;20212;-70
2022/01/18 00:34:20;;;;;;;8.73;7.83;;;;;;;1.57;91.11;98398.06;5040424;28;20208;-70
2022/01/18 00:36:59;;;;;;;8.73;7.93;;;;;;;1.47;91.92;98395.72;5054630;28;20210;-71
2022/01/18 00:39:26;;;;;;;11.57;10.30;;;;;;;1.53;91.66;98394.69;5040518;28;20220;-69
2022/01/18 00:41:53;;;;;;;10.23;9.13;;;;;;;1.49;91.28;98399.13;5035936;28;20207;-68
2022/01/18 00:44:21;;;;;;;9.67;8.67;;;;;;;1.44;91.44;98400.19;5035086;28;20241;-68
2022/01/18 00:46:47;;;;;;;9.20;8.37;;;;;;;1.48;91.54;98396.59;5034572;28;20224;-69
2022/01/18 00:49:14;;;;;;;10.87;9.23;;;;;;;1.45;91.68;98401.91;5045289;28;20231;-70
2022/01/18 00:51:44;;;;;;;10.27;9.27;;;;;;;1.45;91.63;98410.53;5042663;28;20219;-67
2022/01/18 00:54:13;;;;;;;10.90;9.80;;;;;;;1.45;91.63;98399.28;5054704;28;20200;-69
2022/01/18 00:56:42;;;;;;;11.33;10.20;;;;;;;1.52;90.73;98401.66;5056469;28;20206;-68
2022/01/18 00:59:09;;;;;;;11.17;9.80;;;;;;;1.47;91.27;98407.91;5040007;28;20210;-69
2022/01/18 01:01:37;;;;;;;9.57;8.67;;;;;;;1.45;91.16;98409.72;5039781;28;20210;-70
2022/01/18 01:04:05;;;;;;;11.23;10.20;;;;;;;1.39;91.31;98396.84;5046533;28;20224;-71
2022/01/18 01:06:32;;;;;;;11.60;10.40;;;;;;;1.38;91.54;98405.56;5057964;28;20672;-69
2022/01/18 01:08:59;;;;;;;11.10;9.83;;;;;;;1.34;91.72;98406.56;5055706;28;20228;-69
2022/01/18 01:11:26;;;;;;;11.23;10.23;;;;;;;1.35;91.78;98405.63;5047336;28;20215;-70
2022/01/18 01:13:55;;;;;;;12.60;11.07;;;;;;;1.32;91.78;98400.50;5038967;28;20685;-71
2022/01/18 01:16:46;;;;;;;13.27;11.87;;;;;;;1.29;91.50;98398.00;5038641;28;20217;-69
2022/01/18 01:41:50;;;;;;;13.73;12.37;;;;;;;1.04;92.22;98373.53;5033388;28;20566;-68
2022/01/18 01:44:24;;;;;;;13.43;12.07;;;;;;;1.02;92.04;98383.16;5039004;28;20208;-68
2022/01/18 01:46:52;;;;;;;12.03;10.83;;;;;;;1.00;92.36;98386.66;5039558;28;20234;-70
2022/01/18 01:49:19;;;;;;;12.03;10.80;;;;;;;1.02;92.74;98380.53;5040300;28;20209;-68
2022/01/18 01:51:48;;;;;;;12.37;11.17;;;;;;;0.98;91.86;98374.56;5044713;28;20207;-68
2022/01/18 01:54:15;;;;;;;12.40;10.43;;;;;;;0.95;92.03;98370.31;5053957;28;20704;-70
2022/01/18 01:56:42;;;;;;;11.73;10.53;;;;;;;0.92;92.10;98369.53;5049730;28;20212;-69
2022/01/18 01:59:10;;;;;;;11.97;10.77;;;;;;;0.92;92.18;98365.16;5043208;28;20209;-69
2022/01/18 02:01:41;;;;;;;11.17;10.03;;;;;;;0.92;92.30;98359.94;5049429;28;20209;-68
2022/01/18 02:04:07;;;;;;;11.70;10.40;;;;;;;0.85;92.75;98353.19;5055906;28;20248;-70
2022/01/18 02:06:33;;;;;;;11.50;10.13;;;;;;;0.87;92.70;98361.84;5056888;28;20255;-69
2022/01/18 02:09:01;;;;;;;10.87;9.87;;;;;;;0.88;92.63;98353.13;5063770;28;20214;-69
2022/01/18 02:11:28;;;;;;;11.00;9.90;;;;;;;0.90;92.80;98366.09;5079158;28;20212;-69
2022/01/18 02:13:56;;;;;;;11.07;9.97;;;;;;;0.90;92.63;98350.47;5064067;28;20193;-68
2022/01/18 02:21:53;;;;;;;11.03;9.80;;;;;;;0.78;93.51;98341.22;5060713;28;20242;-79
2022/01/18 02:24:21;;;;;;;10.60;9.50;;;;;;;0.85;93.42;98340.16;5049032;28;20271;-72
2022/01/18 02:26:47;;;;;;;10.50;9.40;;;;;;;0.88;93.28;98342.72;5050345;28;20208;-72
2022/01/18 02:29:14;;;;;;;12.00;9.33;;;;;;;0.87;92.84;98342.75;5060755;28;20203;-70
2022/01/18 02:31:41;;;;;;;10.37;9.30;;;;;;;0.85;93.18;98337.56;5062599;28;20205;-70
2022/01/18 02:34:10;;;;;;;11.10;10.00;;;;;;;0.87;93.28;98335.78;5076419;28;20219;-69
2022/01/18 02:36:37;;;;;;;9.93;8.93;;;;;;;0.87;93.17;98341.00;5042010;28;20210;-71
2022/01/18 02:39:06;;;;;;;10.93;9.63;;;;;;;0.81;92.74;98335.97;5057844;28;20239;-69
2022/01/18 02:41:32;;;;;;;9.70;8.80;;;;;;;0.77;92.79;98339.56;5067540;28;20212;-68
2022/01/18 02:43:59;;;;;;;9.83;8.83;;;;;;;0.76;92.79;98337.84;5073739;28;20204;-70
2022/01/18 02:46:27;;;;;;;9.47;8.53;;;;;;;0.71;92.84;98349.28;5074190;28;20231;-69
2022/01/18 02:48:55;;;;;;;9.43;8.00;;;;;;;0.68;93.60;98350.19;5067328;28;20200;-68
2022/01/18 02:51:21;;;;;;;8.73;7.83;;;;;;;0.71;93.36;98354.50;5041593;28;20202;-68
2022/01/18 02:53:57;;;;;;;9.53;8.57;;;;;;;0.69;93.31;98358.88;5042459;28;20240;-68
2022/01/18 02:56:26;;;;;;;8.90;7.93;;;;;;;0.62;93.44;98360.78;5050631;28;20194;-68
2022/01/18 02:58:58;;;;;;;9.00;8.07;;;;;;;0.69;93.71;98356.25;5036656;28;20291;-67
2022/01/18 03:04:10;;;;;;;8.30;7.57;;;;;;;0.77;93.27;98342.16;5052717;28;20209;-69
2022/01/18 03:06:37;;;;;;;8.93;7.63;;;;;;;0.75;93.87;98343.94;5054395;28;20243;-67
2022/01/18 03:09:03;;;;;;;10.10;8.57;;;;;;;0.76;93.64;98343.03;5051441;28;20483;-68
2022/01/18 03:11:31;;;;;;;8.93;8.03;;;;;;;0.76;93.02;98350.00;5039271;28;20520;-66
2022/01/18 03:13:58;;;;;;;10.00;7.83;;;;;;;0.74;93.46;98350.06;5037109;28;20529;-69
2022/01/18 03:16:24;;;;;;;8.63;7.83;;;;;;;0.76;93.16;98353.47;5036500;28;20547;-67
2022/01/18 03:18:50;;;;;;;8.80;7.90;;;;;;;0.58;93.27;98364.34;5035916;28;20664;-66
2022/01/18 03:21:17;;;;;;;10.10;8.00;;;;;;;0.60;93.45;98360.00;5036401;28;20208;-66
2022/01/18 03:23:50;;;;;;;9.30;7.90;;;;;;;0.62;93.16;98355.56;5036165;28;20636;-65
2022/01/18 03:26:18;;;;;;;9.33;7.70;;;;;;;0.54;94.12;98352.31;5032287;28;20244;-67
2022/01/18 03:28:45;;;;;;;8.67;7.77;;;;;;;0.50;93.50;98363.69;5036257;28;20546;-66
2022/01/18 03:31:11;;;;;;;8.67;7.87;;;;;;;0.48;93.04;98362.91;5036336;28;20213;-67
2022/01/18 03:33:38;;;;;;;10.23;7.80;;;;;;;0.42;93.52;98363.06;5035829;28;20816;-65
2022/01/18 03:36:06;;;;;;;7.93;7.23;;;;;;;0.47;93.19;98355.97;5037033;28;20208;-64
2022/01/18 03:38:32;;;;;;;8.97;8.07;;;;;;;0.49;93.28;98375.03;5046122;28;20682;-67
2022/01/18 03:41:00;;;;;;;8.87;7.57;;;;;;;0.51;93.84;98362.81;5046057;28;20208;-65
2022/01/18 03:43:27;;;;;;;8.93;8.03;;;;;;;0.59;93.16;98360.88;5035464;28;20222;-66
2022/01/18 03:46:00;;;;;;;8.93;8.13;;;;;;;0.63;93.23;98362.50;5036296;28;20244;-65
2022/01/18 03:48:30;;;;;;;8.07;7.33;;;;;;;0.63;93.57;98361.66;5046460;28;20205;-66
2022/01/18 03:50:57;;;;;;;10.37;8.10;;;;;;;0.66;93.82;98367.63;5043176;28;20203;-66
2022/01/18 03:53:23;;;;;;;9.60;8.67;;;;;;;0.66;93.71;98367.63;5035463;28;20268;-66
2022/01/18 03:55:51;;;;;;;8.43;7.67;;;;;;;0.64;93.01;98358.97;5034698;28;20244;-66
2022/01/18 03:58:17;;;;;;;9.03;8.13;;;;;;;0.63;93.09;98370.31;5035428;28;20228;-67
2022/01/18 04:00:44;;;;;;;9.33;8.43;;;;;;;0.60;93.29;98367.78;5051605;28;20635;-65
2022/01/18 04:03:12;;;;;;;8.93;8.03;;;;;;;0.43;94.32;98372.56;5055024;28;20214;-66
2022/01/18 04:05:38;;;;;;;9.57;8.07;;;;;;;0.40;94.20;98370.03;5050833;28;20232;-65
2022/01/18 04:08:05;;;;;;;9.50;8.50;;;;;;;0.48;94.10;98368.97;5038132;28;20220;-65
2022/01/18 04:10:32;;;;;;;9.00;8.20;;;;;;;0.55;93.90;98372.25;5042176;28;20210;-67
2022/01/18 04:12:59;;;;;;;9.70;8.70;;;;;;;0.57;93.40;98373.06;5035303;28;20219;-66
2022/01/18 04:15:25;;;;;;;9.70;8.73;;;;;;;0.58;94.12;98363.50;5035302;28;20204;-67
2022/01/18 04:18:17;;;;;;;9.00;8.10;;;;;;;0.59;93.35;98360.00;5043406;28;20661;-67
2022/01/18 04:28:58;;;;;;;9.10;8.20;;;;;;;0.68;93.97;98352.81;5034648;28;20245;-65
2022/01/18 04:31:26;;;;;;;10.07;9.07;;;;;;;0.69;94.54;98351.91;5038865;28;20206;-65
2022/01/18 04:33:52;;;;;;;9.60;8.60;;;;;;;0.62;93.74;98355.56;5043533;28;20546;-66
2022/01/18 04:36:20;;;;;;;9.27;8.37;;;;;;;0.61;94.52;98364.28;5055114;28;20222;-66
2022/01/18 04:38:47;;;;;;;9.57;8.57;;;;;;;0.62;94.06;98355.56;5056661;28;20224;-66
2022/01/18 04:41:17;;;;;;;9.57;8.53;;;;;;;0.70;93.96;98357.97;5046407;28;20221;-66
2022/01/18 04:43:52;;;;;;;10.63;9.37;;;;;;;0.54;93.16;98354.91;5045991;28;20295;-66
2022/01/18 04:49:04;;;;;;;9.17;8.37;;;;;;;0.47;94.65;98349.03;5035350;28;20202;-65
2022/01/18 04:51:33;;;;;;;9.47;8.57;;;;;;;0.51;94.23;98357.59;5064950;28;20197;-65
2022/01/18 04:54:01;;;;;;;10.90;9.80;;;;;;;0.48;94.01;98358.53;5049213;28;20223;-65
2022/01/18 04:57:51;;;;;;;10.37;9.27;;;;;;;0.38;94.02;98354.47;5042719;28;20229;-65
2022/01/18 04:59:17;;;;;;;10.27;9.13;;;;;;;0.42;93.64;98347.44;5054555;28;20241;-66
2022/01/18 05:01:47;;;;;;;9.33;8.43;;;;;;;0.47;94.23;98348.16;5043846;28;20214;-66
2022/01/18 05:04:13;;;;;;;10.23;9.20;;;;;;;0.34;94.01;98355.44;5056140;28;20204;-65
2022/01/18 05:06:43;;;;;;;10.13;9.13;;;;;;;0.40;93.71;98354.41;5036948;28;20253;-67
2022/01/18 05:09:11;;;;;;;9.10;8.17;;;;;;;0.42;94.09;98344.84;5035682;28;20288;-67
2022/01/18 05:11:46;;;;;;;9.50;8.10;;;;;;;0.44;94.17;98343.91;5038682;28;20223;-67
2022/01/18 05:14:22;;;;;;;9.57;8.57;;;;;;;0.53;94.15;98348.03;5047543;28;20530;-65
2022/01/18 05:16:56;;;;;;;10.10;8.83;;;;;;;0.53;94.06;98350.63;5037986;28;20242;-64
2022/01/18 05:19:28;;;;;;;9.80;8.80;;;;;;;0.53;94.10;98349.78;5050773;28;20205;-67
2022/01/18 05:24:40;;;;;;;10.37;9.17;;;;;;;0.57;94.36;98347.03;5071244;28;20213;-67
2022/01/18 05:27:06;;;;;;;10.80;9.13;;;;;;;0.53;94.39;98339.34;5068920;28;20583;-65
2022/01/18 05:29:33;;;;;;;10.10;9.07;;;;;;;0.59;94.90;98345.25;5055070;28;20637;-65
2022/01/18 05:32:00;;;;;;;10.50;9.40;;;;;;;0.60;94.53;98346.09;5038829;28;20644;-66
2022/01/18 05:34:26;;;;;;;9.97;8.97;;;;;;;0.61;94.24;98340.84;5068894;28;20215;-66
2022/01/18 05:36:52;;;;;;;10.63;8.90;;;;;;;0.59;94.23;98333.97;5072391;28;20221;-67
2022/01/18 05:39:21;;;;;;;10.50;9.40;;;;;;;0.63;94.11;98326.06;5055339;28;20206;-67
2022/01/18 05:41:48;;;;;;;10.87;9.53;;;;;;;0.64;93.73;98330.34;5055144;28;20655;-66
2022/01/18 05:44:14;;;;;;;10.37;9.23;;;;;;;0.62;93.81;98321.72;5043457;28;20217;-64
2022/01/18 05:46:41;;;;;;;10.90;9.77;;;;;;;0.62;93.82;98326.94;5048464;28;20227;-66
2022/01/18 05:49:07;;;;;;;9.87;8.87;;;;;;;0.62;93.89;98324.34;5038628;28;20220;-65
2022/01/18 05:51:36;;;;;;;10.67;9.37;;;;;;;0.62;94.02;98324.34;5055603;28;20209;-65
2022/01/18 05:54:04;;;;;;;9.33;8.50;;;;;;;0.59;93.99;98315.75;5047605;28;20210;-65
2022/01/18 05:56:31;;;;;;;11.03;9.83;;;;;;;0.57;93.60;98315.78;5046224;28;20203;-68
2022/01/18 05:59:01;;;;;;;9.30;8.40;;;;;;;0.63;93.14;98325.19;5042799;28;20221;-67
2022/01/18 06:01:33;;;;;;;9.80;8.80;;;;;;;0.62;93.63;98328.69;5038198;28;20221;-66
2022/01/18 06:04:11;;;;;;;10.27;9.03;;;;;;;0.59;93.56;98329.63;5041808;28;20214;-66
2022/01/18 06:06:53;;;;;;;9.90;8.83;;;;;;;0.60;93.17;98330.50;5055888;28;20236;-67
2022/01/18 06:09:21;;;;;;;10.40;9.17;;;;;;;0.59;93.61;98328.78;5047312;28;20206;-66
2022/01/18 06:11:49;;;;;;;11.50;9.83;;;;;;;0.57;93.57;98328.78;5040664;28;20654;-67
2022/01/18 06:14:16;;;;;;;10.07;9.07;;;;;;;0.47;92.26;98325.59;5038267;28;20206;-65
2022/01/18 06:16:42;;;;;;;9.47;8.47;;;;;;;0.43;92.58;98326.56;5038123;28;20268;-66
2022/01/18 06:19:09;;;;;;;9.73;8.70;;;;;;;0.44;93.10;98330.88;5038279;28;20649;-66
2022/01/18 06:21:35;;;;;;;10.40;9.33;;;;;;;0.46;92.95;98334.28;5040198;28;20214;-66
2022/01/18 06:24:02;;;;;;;10.33;9.27;;;;;;;0.46;92.97;98338.66;5066215;28;20204;-66
2022/01/18 06:26:28;;;;;;;10.40;9.30;;;;;;;0.44;93.02;98336.09;5068802;28;20238;-66
2022/01/18 06:28:58;;;;;;;10.23;9.20;;;;;;;0.44;93.05;98335.22;5046554;28;20212;-67
2022/01/18 06:31:25;;;;;;;11.20;9.30;;;;;;;0.46;93.54;98334.28;5052335;28;20243;-66
2022/01/18 06:33:51;;;;;;;11.03;9.10;;;;;;;0.46;93.21;98338.66;5051248;28;20209;-66
2022/01/18 06:36:18;;;;;;;10.03;9.03;;;;;;;0.43;93.22;98338.72;5041121;28;20218;-65
2022/01/18 06:38:44;;;;;;;9.57;8.67;;;;;;;0.43;93.28;98339.56;5049481;28;20617;-66
2022/01/18 06:41:11;;;;;;;11.97;9.20;;;;;;;0.45;93.82;98336.94;5057285;28;20227;-65
2022/01/18 06:43:38;;;;;;;10.17;9.03;;;;;;;0.44;93.54;98333.50;5047391;28;20206;-66
2022/01/18 06:46:06;;;;;;;11.07;9.87;;;;;;;0.45;93.45;98335.22;5037729;28;20226;-66
2022/01/18 06:48:32;;;;;;;15.13;11.87;;;;;;;0.33;92.67;98342.47;5038911;28;20214;-65
2022/01/18 06:50:59;;;;;;;22.13;13.47;;;;;;;0.41;93.46;98350.94;5055477;28;20592;-65
2022/01/18 06:53:31;;;;;;;64.07;30.60;;;;;;;0.51;93.37;98341.97;5066716;28;20218;-67
2022/01/18 06:55:57;;;;;;;62.40;32.27;;;;;;;0.54;93.99;98341.91;5053563;28;20200;-66
2022/01/18 06:58:24;;;;;;;53.97;26.67;;;;;;;0.58;93.63;98343.53;5048676;28;20205;-67
2022/01/18 07:00:50;;;;;;;32.07;18.73;;;;;;;0.61;94.02;98346.06;5044353;28;20225;-65
2022/01/18 07:03:19;;;;;;;24.90;16.00;;;;;;;0.67;93.92;98353.72;5046575;28;20229;-66
2022/01/18 07:05:45;;;;;;;20.27;14.67;;;;;;;0.62;93.54;98345.16;5047187;28;20254;-66
2022/01/18 07:08:12;;;;;;;17.00;11.90;;;;;;;0.64;93.37;98351.16;5057734;28;20211;-65
2022/01/18 07:10:38;;;;;;;13.63;10.60;;;;;;;0.63;93.59;98343.41;5041288;28;20206;-65
2022/01/18 07:13:05;;;;;;;11.07;9.83;;;;;;;0.65;93.40;98355.50;5056263;28;20629;-65
2022/01/18 07:15:32;;;;;;;12.20;10.47;;;;;;;0.62;93.63;98355.56;5039756;28;20217;-66
2022/01/18 07:17:59;;;;;;;11.50;10.07;;;;;;;0.61;93.11;98348.66;5036784;28;20249;-67
2022/01/18 07:20:27;;;;;;;11.63;9.40;;;;;;;0.64;93.62;98353.78;5037418;28;20224;-64
2022/01/18 07:22:53;;;;;;;11.23;9.67;;;;;;;0.65;93.34;98358.09;5037848;28;20213;-65
2022/01/18 07:25:20;;;;;;;10.63;9.57;;;;;;;0.72;93.94;98370.06;5039831;28;20225;-67
2022/01/18 07:27:46;;;;;;;11.20;9.97;;;;;;;0.75;93.62;98366.50;5054940;28;20232;-66
2022/01/18 07:30:13;;;;;;;12.37;9.80;;;;;;;0.77;93.62;98369.94;5046743;28;20201;-65
2022/01/18 07:32:39;;;;;;;11.17;10.07;;;;;;;0.83;93.64;98372.38;5070720;28;20262;-66
2022/01/18 07:35:08;;;;;;;12.80;9.50;;;;;;;0.87;93.98;98380.06;5074485;28;20214;-67
2022/01/18 07:37:36;;;;;;;12.37;10.70;;;;;;;0.91;94.22;98379.09;5072341;28;20233;-66
2022/01/18 07:40:03;;;;;;;11.57;10.27;;;;;;;1.10;94.98;98378.59;5076991;28;20212;-66
2022/01/18 07:42:29;;;;;;;15.60;11.67;;;;;;;1.22;95.59;98376.47;5078253;28;20188;-66
2022/01/18 07:44:56;;;;;;;15.37;12.87;;;;;;;1.37;96.01;98383.00;5055561;28;20226;-67
2022/01/18 07:47:22;;;;;;;13.83;11.87;;;;;;;1.44;95.74;98381.94;5044323;28;20226;-66
2022/01/18 07:49:49;;;;;;;13.37;11.77;;;;;;;1.54;95.45;98379.91;5070334;28;20190;-66
2022/01/18 07:52:16;;;;;;;15.53;11.83;;;;;;;1.66;95.51;98376.94;5057363;28;20198;-65
2022/01/18 07:54:44;;;;;;;16.37;13.10;;;;;;;1.72;94.90;98377.59;5063104;28;20201;-67
2022/01/18 07:57:12;;;;;;;15.03;12.37;;;;;;;1.84;95.35;98381.59;5068304;28;20201;-67
2022/01/18 07:59:38;;;;;;;15.93;13.83;;;;;;;1.88;95.32;98389.25;5060056;28;20266;-65
2022/01/18 08:02:05;;;;;;;15.57;13.43;;;;;;;1.95;94.84;98387.31;5037663;28;20203;-65
2022/01/18 08:04:31;;;;;;;16.67;13.37;;;;;;;2.03;94.55;98394.91;5059205;28;20217;-66
2022/01/18 08:06:58;;;;;;;20.00;15.13;;;;;;;2.09;94.88;98385.13;5075456;28;20238;-66
2022/01/18 08:09:24;;;;;;;18.57;15.77;;;;;;;2.19;94.92;98388.31;5069746;28;20209;-67
2022/01/18 08:11:52;;;;;;;18.67;16.10;;;;;;;2.33;95.21;98404.38;5072834;28;20216;-66
2022/01/18 08:14:19;;;;;;;18.77;16.83;;;;;;;2.37;95.02;98398.16;5076457;28;20210;-67
2022/01/18 08:16:49;;;;;;;19.30;17.13;;;;;;;2.47;94.80;98394.34;5076042;28;20206;-66
2022/01/18 08:19:16;;;;;;;20.33;17.30;;;;;;;2.45;94.34;98398.75;5052635;28;20206;-67
2022/01/18 08:21:43;;;;;;;19.93;17.77;;;;;;;2.50;94.46;98402.06;5054350;28;20565;-66
2022/01/18 08:24:09;;;;;;;22.27;17.90;;;;;;;2.47;94.27;98397.81;5036066;28;20206;-67
2022/01/18 08:26:36;;;;;;;21.10;17.43;;;;;;;2.53;93.89;98406.31;5036040;28;20276;-67
2022/01/18 08:29:03;;;;;;;18.43;16.33;;;;;;;2.50;94.02;98402.06;5036810;28;20230;-64
2022/01/18 08:31:30;;;;;;;20.57;17.43;;;;;;;2.58;93.88;98410.50;5038115;28;20207;-64
2022/01/18 08:33:57;;;;;;;23.40;18.07;;;;;;;2.59;94.39;98401.75;5075079;28;20191;-65
2022/01/18 08:36:23;;;;;;;22.07;17.03;;;;;;;2.72;93.78;98400.44;5075150;28;20187;-65
2022/01/18 08:38:49;;;;;;;20.53;18.10;;;;;;;2.84;93.62;98402.63;5057557;28;20217;-65
2022/01/18 08:41:17;;;;;;;20.23;17.47;;;;;;;2.91;93.44;98404.13;5036120;28;20207;-67
2022/01/18 08:43:43;;;;;;;20.10;17.90;;;;;;;2.99;92.82;98406.47;5052836;28;20529;-65
2022/01/18 08:46:11;;;;;;;20.23;17.93;;;;;;;3.12;91.91;98406.91;5048118;28;20484;-65
2022/01/18 08:48:38;;;;;;;22.90;19.07;;;;;;;3.23;92.22;98402.13;5046354;28;20271;-66
2022/01/18 08:51:06;;;;;;;22.53;19.13;;;;;;;3.45;92.13;98403.06;5044962;28;20238;-66
2022/01/18 08:53:32;;;;;;;22.10;18.97;;;;;;;3.64;90.76;98406.69;5045632;28;20204;-66
2022/01/18 08:55:59;;;;;;;21.73;18.80;;;;;;;3.87;90.55;98406.66;5035313;28;20646;-66
2022/01/18 08:58:26;;;;;;;22.67;18.53;;;;;;;3.97;89.85;98405.41;5035225;28;20231;-66
2022/01/18 09:00:53;;;;;;;23.30;18.30;;;;;;;4.14;88.76;98406.53;5036776;28;20215;-66
2022/01/18 09:03:21;;;;;;;20.30;18.00;;;;;;;4.18;87.43;98408.94;5040068;28;20222;-66
2022/01/18 09:05:48;;;;;;;22.10;18.70;;;;;;;4.19;86.72;98404.56;5053809;28;20227;-65
2022/01/18 09:08:14;;;;;;;20.50;18.13;;;;;;;4.31;86.56;98404.06;5043635;28;20211;-66
2022/01/18 09:10:44;;;;;;;18.13;16.23;;;;;;;4.42;86.08;98404.50;5038352;28;20204;-64
2022/01/18 09:13:10;;;;;;;17.70;15.90;;;;;;;4.29;85.58;98406.75;5035206;28;20203;-64
2022/01/18 09:15:37;;;;;;;19.30;15.87;;;;;;;4.25;85.99;98404.31;5035277;28;20211;-66
2022/01/18 09:18:03;;;;;;;19.37;15.97;;;;;;;4.12;86.27;98403.09;5038046;28;20204;-66
2022/01/18 09:20:31;;;;;;;17.83;14.13;;;;;;;4.04;85.64;98410.41;5039279;28;20301;-66
2022/01/18 09:22:58;;;;;;;16.87;15.07;;;;;;;3.95;86.60;98412.47;5039695;28;20204;-65
2022/01/18 09:25:27;;;;;;;16.70;14.93;;;;;;;3.82;86.99;98408.63;5038983;28;20220;-65
2022/01/18 09:27:54;;;;;;;16.33;14.63;;;;;;;3.96;87.16;98408.09;5039081;28;20593;-66
2022/01/18 09:30:21;;;;;;;17.03;15.20;;;;;;;3.90;87.44;98409.16;5038867;28;20285;-66
2022/01/18 09:32:48;;;;;;;18.43;14.93;;;;;;;3.86;87.51;98411.97;5042608;28;20218;-65
2022/01/18 09:35:16;;;;;;;18.90;15.23;;;;;;;3.89;87.78;98406.63;5039430;28;20526;-66
2022/01/18 09:37:44;;;;;;;17.10;14.93;;;;;;;3.89;87.14;98407.47;5042323;28;20210;-64
2022/01/18 09:40:14;;;;;;;16.50;14.50;;;;;;;3.93;87.50;98411.66;5054632;28;20215;-64
2022/01/18 09:42:43;;;;;;;15.87;14.23;;;;;;;3.91;87.33;98416.13;5045964;28;20217;-66
2022/01/18 09:45:11;;;;;;;16.07;14.30;;;;;;;3.93;88.43;98418.69;5039065;28;20298;-66
2022/01/18 09:47:41;;;;;;;15.83;14.07;;;;;;;3.96;87.73;98408.94;5038990;28;20235;-66
2022/01/18 09:50:10;;;;;;;14.60;13.00;;;;;;;4.01;86.71;98414.84;5038767;28;20218;-64
2022/01/18 09:52:37;;;;;;;15.33;13.73;;;;;;;4.03;87.32;98421.78;5055785;28;20599;-66
2022/01/18 09:55:08;;;;;;;17.33;13.77;;;;;;;4.01;87.05;98417.47;5047725;28;20219;-66
2022/01/18 09:57:34;;;;;;;15.63;13.77;;;;;;;3.94;87.43;98418.59;5056211;28;20223;-65
2022/01/18 10:00:01;;;;;;;16.40;14.60;;;;;;;3.96;87.38;98418.56;5058759;28;20211;-64
2022/01/18 10:02:27;;;;;;;15.53;13.47;;;;;;;3.96;87.32;98418.56;5058627;28;20203;-64
2022/01/18 10:04:57;;;;;;;15.00;13.00;;;;;;;3.99;87.43;98424.53;5051602;28;20203;-65
2022/01/18 10:07:31;;;;;;;14.17;12.57;;;;;;;4.09;87.16;98418.91;5053068;28;20325;-64
2022/01/18 10:09:59;;;;;;;14.60;12.67;;;;;;;4.08;87.01;98417.22;5050587;28;20275;-65
2022/01/18 10:12:27;;;;;;;15.57;13.73;;;;;;;4.07;86.74;98408.53;5038738;28;20214;-66
2022/01/18 10:14:54;;;;;;;15.00;13.40;;;;;;;4.08;87.05;98401.50;5038197;28;20211;-65
2022/01/18 10:17:29;;;;;;;14.03;12.53;;;;;;;4.11;87.21;98406.66;5037600;28;20219;-66
2022/01/18 10:20:03;;;;;;;14.30;12.80;;;;;;;4.16;86.99;98404.69;5051495;28;20190;-65
2022/01/18 10:22:39;;;;;;;14.97;12.70;;;;;;;4.17;86.40;98401.16;5049338;28;20199;-64
2022/01/18 10:25:13;;;;;;;16.30;13.50;;;;;;;4.17;86.74;98393.31;5050241;28;20662;-67
2022/01/18 10:27:41;;;;;;;13.73;12.33;;;;;;;4.20;86.58;98391.41;5037183;28;20597;-66
2022/01/18 10:30:19;;;;;;;13.50;12.10;;;;;;;4.25;86.22;98393.84;5041254;28;20219;-67
2022/01/18 10:33:01;;;;;;;13.83;12.13;;;;;;;4.29;86.00;98384.94;5056019;28;20215;-66
2022/01/18 10:35:28;;;;;;;14.87;12.00;;;;;;;4.25;85.72;98378.16;5062755;28;20505;-66
2022/01/18 10:37:54;;;;;;;12.70;11.43;;;;;;;4.21;85.84;98387.03;5055592;28;20631;-67
2022/01/18 10:40:26;;;;;;;14.07;12.00;;;;;;;4.16;86.11;98379.34;5055424;28;20208;-67
2022/01/18 10:42:54;;;;;;;13.67;11.90;;;;;;;4.25;86.04;98380.75;5037877;28;20752;-67
2022/01/18 10:45:27;;;;;;;12.80;11.27;;;;;;;4.29;85.80;98369.22;5040983;28;20230;-66
2022/01/18 10:47:57;;;;;;;12.30;10.63;;;;;;;4.21;85.77;98371.31;5037605;28;20597;-65
2022/01/18 10:50:25;;;;;;;12.30;10.97;;;;;;;4.26;85.55;98367.59;5040906;28;20234;-68
2022/01/18 10:52:52;;;;;;;11.87;10.67;;;;;;;4.26;85.35;98364.09;5051421;28;20207;-66
2022/01/18 10:55:21;;;;;;;14.30;11.27;;;;;;;4.31;85.02;98354.31;5042466;28;20211;-65
2022/01/18 10:57:48;;;;;;;11.50;10.30;;;;;;;4.30;85.03;98361.31;5042282;28;20214;-67
2022/01/18 11:00:20;;;;;;;14.27;10.23;;;;;;;4.27;85.08;98350.13;5056961;28;20306;-65
2022/01/18 11:02:50;;;;;;;11.67;10.47;;;;;;;4.34;84.87;98349.81;5050812;28;20218;-65
2022/01/18 11:05:19;;;;;;;11.20;9.50;;;;;;;4.42;84.40;98342.50;5051249;28;20293;-65
2022/01/18 11:07:47;;;;;;;12.00;9.77;;;;;;;4.50;83.91;98336.91;5036899;28;20227;-66
2022/01/18 11:10:15;;;;;;;11.23;9.93;;;;;;;4.53;83.45;98339.41;5041434;28;20615;-65
2022/01/18 11:12:52;;;;;;;10.70;9.67;;;;;;;4.62;82.85;98339.00;5057256;28;20203;-64
2022/01/18 11:15:25;;;;;;;10.63;9.63;;;;;;;4.59;82.62;98336.53;5043909;28;20505;-64
2022/01/18 11:17:58;;;;;;;10.37;9.37;;;;;;;4.55;82.75;98332.34;5037269;28;20223;-65
2022/01/18 11:20:25;;;;;;;9.47;8.47;;;;;;;4.55;81.96;98332.34;5036840;28;20235;-66
2022/01/18 11:22:52;;;;;;;10.47;9.37;;;;;;;4.57;81.49;98332.28;5037487;28;20643;-66
2022/01/18 11:25:19;;;;;;;10.40;9.40;;;;;;;4.57;81.95;98333.09;5038355;28;20206;-66
2022/01/18 11:27:49;;;;;;;9.80;8.83;;;;;;;4.65;81.24;98340.66;5036968;28;20678;-69
2022/01/18 11:30:16;;;;;;;9.40;8.50;;;;;;;4.55;81.33;98331.47;5043558;28;20211;-70
2022/01/18 11:32:45;;;;;;;9.63;7.90;;;;;;;4.62;80.86;98331.16;5039635;28;20231;-70
2022/01/18 11:35:14;;;;;;;10.07;8.60;;;;;;;4.60;81.31;98333.00;5051833;28;20238;-69
2022/01/18 11:37:52;;;;;;;9.23;8.17;;;;;;;4.68;80.73;98320.41;5042931;28;20612;-70
2022/01/18 11:40:19;;;;;;;9.57;8.27;;;;;;;4.65;80.60;98327.53;5037481;28;20238;-68
2022/01/18 11:42:51;;;;;;;8.50;7.70;;;;;;;4.64;80.76;98323.25;5041130;28;20215;-71
2022/01/18 11:45:39;;;;;;;11.87;9.80;;;;;;;4.76;80.38;98323.56;5036297;28;20204;-64
2022/01/18 11:48:18;;;;;;;9.43;8.57;;;;;;;4.79;80.16;98318.16;5055624;28;20258;-71
2022/01/18 11:50:47;;;;;;;10.07;8.70;;;;;;;4.76;80.21;98320.06;5042529;28;20635;-72
2022/01/18 11:53:46;;;;;;;10.47;9.37;;;;;;;4.83;79.55;98325.00;5037016;28;20226;-70
2022/01/18 11:56:15;;;;;;;9.00;8.03;;;;;;;4.95;79.51;98324.47;5035422;28;20218;-70
2022/01/18 11:58:42;;;;;;;10.97;8.37;;;;;;;5.00;79.35;98324.25;5035545;28;20211;-71
2022/01/18 12:01:10;;;;;;;9.17;8.30;;;;;;;5.06;79.10;98320.50;5035499;28;20269;-72
2022/01/18 12:03:44;;;;;;;9.77;8.77;;;;;;;5.07;79.40;98322.19;5040423;28;20575;-66
2022/01/18 12:06:11;;;;;;;9.80;8.80;;;;;;;5.07;79.02;98311.69;5055490;28;20333;-64
2022/01/18 12:08:40;;;;;;;9.30;8.10;;;;;;;5.09;78.08;98304.63;5040331;28;20223;-68
2022/01/18 12:11:10;;;;;;;9.87;7.97;;;;;;;5.15;77.92;98305.22;5040569;28;20233;-67
2022/01/18 12:13:42;;;;;;;10.10;8.47;;;;;;;5.20;77.46;98299.75;5035307;28;20632;-68
2022/01/18 12:16:20;;;;;;;8.67;7.87;;;;;;;5.43;76.76;98291.69;5051303;28;20203;-68
2022/01/18 12:18:54;;;;;;;9.57;7.83;;;;;;;5.37;76.03;98291.97;5054889;28;20195;-63
2022/01/18 12:21:24;;;;;;;8.57;7.43;;;;;;;5.31;76.22;98293.13;5044057;28;20248;-62
2022/01/18 12:23:51;;;;;;;8.07;7.27;;;;;;;5.31;76.28;98281.75;5036144;28;20226;-64